createdAt,value
2022-07-25T00:00:42.210Z,20.99
2022-07-25T00:01:44.770Z,20.99
2022-07-25T00:02:48.446Z,20.97
2022-07-25T00:03:51.245Z,20.96
2022-07-25T00:04:53.719Z,20.94
2022-07-25T00:05:56.020Z,20.92
2022-07-25T00:06:58.348Z,20.93
2022-07-25T00:08:00.601Z,20.90
2022-07-25T00:09:02.846Z,20.88
2022-07-25T00:10:05.737Z,20.86
2022-07-25T00:11:07.946Z,20.86
2022-07-25T00:12:11.193Z,20.85
2022-07-25T00:13:13.906Z,20.85
2022-07-25T00:14:16.103Z,20.84
2022-07-25T00:15:18.332Z,20.81
2022-07-25T00:16:20.626Z,20.79
2022-07-25T00:17:22.937Z,20.78
2022-07-25T00:18:25.159Z,20.77
2022-07-25T00:19:27.648Z,20.75
2022-07-25T00:20:29.853Z,20.74
2022-07-25T00:21:32.850Z,20.74
2022-07-25T00:22:37.772Z,20.72
2022-07-25T00:23:40.024Z,20.71
2022-07-25T00:24:42.350Z,20.70
2022-07-25T00:25:44.563Z,20.68
2022-07-25T00:26:46.778Z,20.67
2022-07-25T00:27:48.991Z,20.67
2022-07-25T00:28:51.215Z,20.66
2022-07-25T00:29:53.454Z,20.64
2022-07-25T00:30:55.829Z,20.64
2022-07-25T00:31:58.087Z,20.64
2022-07-25T00:33:00.286Z,20.62
2022-07-25T00:34:04.496Z,20.62
2022-07-25T00:35:07.231Z,20.61
2022-07-25T00:36:13.128Z,20.58
2022-07-25T00:37:15.438Z,20.58
2022-07-25T00:38:18.841Z,20.56
2022-07-25T00:39:21.076Z,20.55
2022-07-25T00:40:23.423Z,20.51
2022-07-25T00:41:25.673Z,20.51
2022-07-25T00:42:27.863Z,20.49
2022-07-25T00:43:30.135Z,20.48
2022-07-25T00:44:33.567Z,20.48
2022-07-25T00:45:35.762Z,20.47
2022-07-25T00:46:39.397Z,20.45
2022-07-25T00:47:41.663Z,20.45
2022-07-25T00:48:44.607Z,20.44
2022-07-25T00:49:47.034Z,20.44
2022-07-25T00:50:49.489Z,20.43
2022-07-25T00:51:53.496Z,20.40
2022-07-25T00:52:55.810Z,20.41
2022-07-25T00:53:58.137Z,20.38
2022-07-25T00:55:01.149Z,20.37
2022-07-25T00:56:04.571Z,20.38
2022-07-25T00:57:06.805Z,20.37
2022-07-25T00:58:08.989Z,20.36
2022-07-25T00:59:11.367Z,20.35
2022-07-25T01:00:15.260Z,20.34
2022-07-25T01:01:19.783Z,20.34
2022-07-25T01:02:22.051Z,20.32
2022-07-25T01:03:24.348Z,20.32
2022-07-25T01:04:26.598Z,20.31
2022-07-25T01:05:28.807Z,20.29
2022-07-25T01:06:31.769Z,20.27
2022-07-25T01:07:35.553Z,20.25
2022-07-25T01:08:38.132Z,20.25
2022-07-25T01:09:40.311Z,20.24
2022-07-25T01:10:46.691Z,20.24
2022-07-25T01:11:49.139Z,20.22
2022-07-25T01:12:54.193Z,20.21
2022-07-25T01:13:56.493Z,20.21
2022-07-25T01:14:58.769Z,20.21
2022-07-25T01:16:01.050Z,20.18
2022-07-25T01:17:03.335Z,20.17
2022-07-25T01:18:05.833Z,20.17
2022-07-25T01:19:08.231Z,20.16
2022-07-25T01:20:17.806Z,20.14
2022-07-25T01:21:20.746Z,20.14
2022-07-25T01:22:22.975Z,20.12
2022-07-25T01:23:25.182Z,20.12
2022-07-25T01:24:27.540Z,20.12
2022-07-25T01:25:29.796Z,20.10
2022-07-25T01:26:32.050Z,20.10
2022-07-25T01:27:36.780Z,20.08
2022-07-25T01:28:39.269Z,20.07
2022-07-25T01:29:41.518Z,20.05
2022-07-25T01:30:44.099Z,20.04
2022-07-25T01:31:46.463Z,20.03
2022-07-25T01:32:48.776Z,20.01
2022-07-25T01:33:50.982Z,19.99
2022-07-25T01:34:53.263Z,19.98
2022-07-25T01:35:55.460Z,19.97
2022-07-25T01:36:57.646Z,19.97
2022-07-25T01:37:59.875Z,19.95
2022-07-25T01:39:05.046Z,19.95
2022-07-25T01:40:09.202Z,19.95
2022-07-25T01:41:14.457Z,19.93
2022-07-25T01:42:25.103Z,19.93
2022-07-25T01:43:27.304Z,19.92
2022-07-25T01:44:29.581Z,19.91
2022-07-25T01:45:31.847Z,19.90
2022-07-25T01:46:34.166Z,19.90
2022-07-25T01:47:36.478Z,19.88
2022-07-25T01:48:40.225Z,19.88
2022-07-25T01:49:42.569Z,19.88
2022-07-25T01:50:44.796Z,19.85
2022-07-25T01:51:47.059Z,19.84
2022-07-25T01:52:50.882Z,19.83
2022-07-25T01:53:53.170Z,19.82
2022-07-25T01:54:55.540Z,19.83
2022-07-25T01:55:58.734Z,19.80
2022-07-25T01:57:05.028Z,19.80
2022-07-25T01:58:08.274Z,19.79
2022-07-25T01:59:10.777Z,19.77
2022-07-25T02:00:15.197Z,19.79
2022-07-25T02:01:17.480Z,19.76
2022-07-25T02:02:21.564Z,19.74
2022-07-25T02:03:32.103Z,19.74
2022-07-25T02:04:35.785Z,19.73
2022-07-25T02:05:38.078Z,19.71
2022-07-25T02:06:41.597Z,19.71
2022-07-25T02:07:43.864Z,19.70
2022-07-25T02:08:46.078Z,19.68
2022-07-25T02:09:56.276Z,19.68
2022-07-25T02:10:59.706Z,19.68
2022-07-25T02:12:02.143Z,19.67
2022-07-25T02:13:04.658Z,19.66
2022-07-25T02:14:07.838Z,19.65
2022-07-25T02:15:10.714Z,19.64
2022-07-25T02:16:13.850Z,19.62
2022-07-25T02:17:16.659Z,19.63
2022-07-25T02:18:21.325Z,19.61
2022-07-25T02:19:23.595Z,19.62
2022-07-25T02:20:25.765Z,19.59
2022-07-25T02:21:28.004Z,19.57
2022-07-25T02:22:30.289Z,19.56
2022-07-25T02:23:33.137Z,19.56
2022-07-25T02:24:37.229Z,19.56
2022-07-25T02:25:39.608Z,19.53
2022-07-25T02:26:41.944Z,19.52
2022-07-25T02:27:44.228Z,19.51
2022-07-25T02:28:46.544Z,19.52
2022-07-25T02:29:51.758Z,19.50
2022-07-25T02:30:54.131Z,19.50
2022-07-25T02:31:56.428Z,19.49
2022-07-25T02:32:58.983Z,19.50
2022-07-25T02:34:01.229Z,19.47
2022-07-25T02:35:04.609Z,19.47
2022-07-25T02:36:15.225Z,19.47
2022-07-25T02:37:17.493Z,19.46
2022-07-25T02:38:19.804Z,19.45
2022-07-25T02:39:22.061Z,19.44
2022-07-25T02:40:24.254Z,19.44
2022-07-25T02:41:26.551Z,19.42
2022-07-25T02:42:28.740Z,19.42
2022-07-25T02:43:31.264Z,19.42
2022-07-25T02:44:33.479Z,19.41
2022-07-25T02:45:35.783Z,19.41
2022-07-25T02:46:38.304Z,19.39
2022-07-25T02:47:40.729Z,19.39
2022-07-25T02:48:43.037Z,19.38
2022-07-25T02:49:45.705Z,19.37
2022-07-25T02:50:48.009Z,19.37
2022-07-25T02:51:50.223Z,19.37
2022-07-25T02:52:52.450Z,19.37
2022-07-25T02:53:57.669Z,19.36
2022-07-25T02:55:02.207Z,19.35
2022-07-25T02:56:06.244Z,19.34
2022-07-25T02:57:08.437Z,19.34
2022-07-25T02:58:11.367Z,19.33
2022-07-25T02:59:13.621Z,19.32
2022-07-25T03:00:16.618Z,19.32
2022-07-25T03:01:18.926Z,19.33
2022-07-25T03:02:21.165Z,19.32
2022-07-25T03:03:23.410Z,19.30
2022-07-25T03:04:25.824Z,19.33
2022-07-25T03:05:28.130Z,19.31
2022-07-25T03:06:30.314Z,19.30
2022-07-25T03:07:32.510Z,19.30
2022-07-25T03:08:37.017Z,19.29
2022-07-25T03:09:39.297Z,19.29
2022-07-25T03:10:43.436Z,19.30
2022-07-25T03:11:45.669Z,19.28
2022-07-25T03:12:47.872Z,19.28
2022-07-25T03:13:50.070Z,19.28
2022-07-25T03:14:52.312Z,19.25
2022-07-25T03:15:56.705Z,19.26
2022-07-25T03:16:59.017Z,19.26
2022-07-25T03:18:01.251Z,19.26
2022-07-25T03:19:03.588Z,19.26
2022-07-25T03:20:07.088Z,19.25
2022-07-25T03:21:09.303Z,19.24
2022-07-25T03:22:11.585Z,19.24
2022-07-25T03:23:13.955Z,19.24
2022-07-25T03:24:17.672Z,19.23
2022-07-25T03:25:21.678Z,19.24
2022-07-25T03:26:24.259Z,19.23
2022-07-25T03:27:27.889Z,19.25
2022-07-25T03:28:30.097Z,19.24
2022-07-25T03:29:32.288Z,19.23
2022-07-25T03:30:34.546Z,19.23
2022-07-25T03:31:36.820Z,19.23
2022-07-25T03:32:39.668Z,19.23
2022-07-25T03:33:41.863Z,19.22
2022-07-25T03:34:44.667Z,19.21
2022-07-25T03:35:46.966Z,19.21
2022-07-25T03:36:49.364Z,19.20
2022-07-25T03:37:51.695Z,19.20
2022-07-25T03:38:55.967Z,19.19
2022-07-25T03:39:58.243Z,19.20
2022-07-25T03:41:00.447Z,19.19
2022-07-25T03:42:02.644Z,19.20
2022-07-25T03:43:04.884Z,19.19
2022-07-25T03:44:07.441Z,19.20
2022-07-25T03:45:10.225Z,19.19
2022-07-25T03:46:14.824Z,19.20
2022-07-25T03:47:20.630Z,19.20
2022-07-25T03:48:25.030Z,19.19
2022-07-25T03:49:27.251Z,19.20
2022-07-25T03:50:30.275Z,19.20
2022-07-25T03:51:32.550Z,19.21
2022-07-25T03:52:34.810Z,19.20
2022-07-25T03:53:56.982Z,19.22
2022-07-25T03:54:59.156Z,19.22
2022-07-25T03:56:01.346Z,19.25
2022-07-25T03:57:03.694Z,19.23
2022-07-25T03:58:06.015Z,19.23
2022-07-25T03:59:09.942Z,19.25
2022-07-25T04:00:12.687Z,19.25
2022-07-25T04:01:15.010Z,19.29
2022-07-25T04:02:17.381Z,19.29
2022-07-25T04:03:19.881Z,19.29
2022-07-25T04:04:22.108Z,19.30
2022-07-25T04:05:24.513Z,19.31
2022-07-25T04:06:26.846Z,19.32
2022-07-25T04:07:29.023Z,19.33
2022-07-25T04:08:33.463Z,19.34
2022-07-25T04:09:35.664Z,19.36
2022-07-25T04:10:37.849Z,19.37
2022-07-25T04:11:40.145Z,19.38
2022-07-25T04:12:42.382Z,19.37
2022-07-25T04:13:44.663Z,19.40
2022-07-25T04:14:46.904Z,19.41
2022-07-25T04:15:49.087Z,19.43
2022-07-25T04:16:53.910Z,19.43
2022-07-25T04:17:56.143Z,19.47
2022-07-25T04:18:58.423Z,19.48
2022-07-25T04:20:02.776Z,19.51
2022-07-25T04:21:08.471Z,19.51
2022-07-25T04:22:14.506Z,19.54
2022-07-25T04:23:16.707Z,19.56
2022-07-25T04:24:18.991Z,19.59
2022-07-25T04:25:21.239Z,19.59
2022-07-25T04:26:23.586Z,19.62
2022-07-25T04:27:25.852Z,19.64
2022-07-25T04:28:28.615Z,19.65
2022-07-25T04:29:30.919Z,19.68
2022-07-25T04:30:33.108Z,19.71
2022-07-25T04:31:35.387Z,19.75
2022-07-25T04:32:37.685Z,19.77
2022-07-25T04:33:40.884Z,19.81
2022-07-25T04:34:44.799Z,19.85
2022-07-25T04:35:47.558Z,19.89
2022-07-25T04:36:49.806Z,19.93
2022-07-25T04:37:52.039Z,19.98
2022-07-25T04:38:54.234Z,20.02
2022-07-25T04:39:56.427Z,20.06
2022-07-25T04:40:58.897Z,20.11
2022-07-25T04:42:01.675Z,20.16
2022-07-25T04:43:04.707Z,20.22
2022-07-25T04:44:08.511Z,20.25
2022-07-25T04:45:11.544Z,20.32
2022-07-25T04:46:19.072Z,20.38
2022-07-25T04:47:21.290Z,20.41
2022-07-25T04:48:23.640Z,20.47
2022-07-25T04:49:25.928Z,20.52
2022-07-25T04:50:29.622Z,20.57
2022-07-25T04:51:31.806Z,20.63
2022-07-25T04:52:34.058Z,20.69
2022-07-25T04:53:36.272Z,20.74
2022-07-25T04:54:38.475Z,20.80
2022-07-25T04:55:40.932Z,20.87
2022-07-25T04:56:43.111Z,20.92
2022-07-25T04:57:47.115Z,20.98
2022-07-25T04:58:49.553Z,21.04
2022-07-25T04:59:51.995Z,21.10
2022-07-25T05:00:54.257Z,21.16
2022-07-25T05:01:56.555Z,21.23
2022-07-25T05:02:59.295Z,21.31
2022-07-25T05:04:01.536Z,21.36
2022-07-25T05:05:04.654Z,21.44
2022-07-25T05:06:07.244Z,21.49
2022-07-25T05:07:09.442Z,21.58
2022-07-25T05:08:11.669Z,21.62
2022-07-25T05:09:13.853Z,21.67
2022-07-25T05:10:16.113Z,21.71
2022-07-25T05:11:18.295Z,21.77
2022-07-25T05:12:20.547Z,21.82
2022-07-25T05:13:22.749Z,21.86
2022-07-25T05:14:25.324Z,21.92
2022-07-25T05:15:27.523Z,21.96
2022-07-25T05:16:29.867Z,22.02
2022-07-25T05:17:32.270Z,22.10
2022-07-25T05:18:37.146Z,22.14
2022-07-25T05:19:39.336Z,22.22
2022-07-25T05:20:41.587Z,22.27
2022-07-25T05:21:43.794Z,22.33
2022-07-25T05:22:46.506Z,22.39
2022-07-25T05:23:48.731Z,22.47
2022-07-25T05:24:53.935Z,22.55
2022-07-25T05:25:56.204Z,22.63
2022-07-25T05:26:58.432Z,22.72
2022-07-25T05:28:02.129Z,22.80
2022-07-25T05:29:04.372Z,22.89
2022-07-25T05:30:08.060Z,22.97
2022-07-25T05:31:10.416Z,23.05
2022-07-25T05:32:12.684Z,23.11
2022-07-25T05:33:15.151Z,23.19
2022-07-25T05:34:17.352Z,23.27
2022-07-25T05:35:19.545Z,23.33
2022-07-25T05:36:21.736Z,23.41
2022-07-25T05:37:24.054Z,23.47
2022-07-25T05:38:26.286Z,23.54
2022-07-25T05:39:28.467Z,23.60
2022-07-25T05:40:30.732Z,23.67
2022-07-25T05:41:32.970Z,23.74
2022-07-25T05:42:35.914Z,23.81
2022-07-25T05:43:39.466Z,23.88
2022-07-25T05:44:41.751Z,23.97
2022-07-25T05:45:44.309Z,24.06
2022-07-25T05:46:46.521Z,24.11
2022-07-25T05:47:48.767Z,24.19
2022-07-25T05:48:50.979Z,24.26
2022-07-25T05:49:54.517Z,24.36
2022-07-25T05:50:57.787Z,24.45
2022-07-25T05:52:00.025Z,24.51
2022-07-25T05:53:02.276Z,24.60
2022-07-25T05:54:04.841Z,24.67
2022-07-25T05:55:07.647Z,24.76
2022-07-25T05:56:10.614Z,24.85
2022-07-25T05:57:13.515Z,24.93
2022-07-25T05:58:15.776Z,25.02
2022-07-25T05:59:17.969Z,25.09
2022-07-25T06:00:20.367Z,25.18
2022-07-25T06:01:22.672Z,25.27
2022-07-25T06:02:25.179Z,25.33
2022-07-25T06:03:27.555Z,25.42
2022-07-25T06:04:30.536Z,25.47
2022-07-25T06:05:32.722Z,25.56
2022-07-25T06:06:35.446Z,25.61
2022-07-25T06:07:37.703Z,25.67
2022-07-25T06:08:39.924Z,25.74
2022-07-25T06:09:42.987Z,25.80
2022-07-25T06:10:45.229Z,25.87
2022-07-25T06:11:54.519Z,25.93
2022-07-25T06:13:02.436Z,25.98
2022-07-25T06:14:04.832Z,26.05
2022-07-25T06:15:22.091Z,26.09
2022-07-25T06:16:25.594Z,26.18
2022-07-25T06:17:32.226Z,26.26
2022-07-25T06:18:34.779Z,26.32
2022-07-25T06:19:39.197Z,26.39
2022-07-25T06:20:41.392Z,26.49
2022-07-25T06:21:43.585Z,26.55
2022-07-25T06:22:45.791Z,26.63
2022-07-25T06:23:48.045Z,26.72
2022-07-25T06:24:50.226Z,26.79
2022-07-25T06:25:52.537Z,26.88
2022-07-25T06:26:54.723Z,26.96
2022-07-25T06:27:57.017Z,27.05
2022-07-25T06:29:01.885Z,27.13
2022-07-25T06:30:06.625Z,27.22
2022-07-25T06:31:13.649Z,27.32
2022-07-25T06:32:15.911Z,27.39
2022-07-25T06:33:18.279Z,27.48
2022-07-25T06:34:20.474Z,27.59
2022-07-25T06:35:22.777Z,27.69
2022-07-25T06:36:32.739Z,27.78
2022-07-25T06:37:40.525Z,27.89
2022-07-25T06:38:42.806Z,27.97
2022-07-25T06:39:46.060Z,28.04
2022-07-25T06:40:48.570Z,28.13
2022-07-25T06:41:51.425Z,28.19
2022-07-25T06:42:53.688Z,28.27
2022-07-25T06:43:56.470Z,28.36
2022-07-25T06:44:58.696Z,28.44
2022-07-25T06:46:01.242Z,28.54
2022-07-25T06:47:03.734Z,28.62
2022-07-25T06:48:06.125Z,28.69
2022-07-25T06:49:08.486Z,28.79
2022-07-25T06:50:25.996Z,28.87
2022-07-25T06:51:28.278Z,28.94
2022-07-25T06:52:30.474Z,29.03
2022-07-25T06:53:32.947Z,29.13
2022-07-25T06:54:35.333Z,29.23
2022-07-25T06:55:37.746Z,29.32
2022-07-25T06:56:40.006Z,29.41
2022-07-25T06:57:43.138Z,29.51
2022-07-25T06:58:45.348Z,29.60
2022-07-25T06:59:47.587Z,29.69
2022-07-25T07:00:53.254Z,29.79
2022-07-25T07:01:55.564Z,29.91
2022-07-25T07:03:01.508Z,30.00
2022-07-25T07:04:05.283Z,30.10
2022-07-25T07:05:08.141Z,30.20
2022-07-25T07:06:10.756Z,30.30
2022-07-25T07:07:13.663Z,30.40
2022-07-25T07:08:15.895Z,30.50
2022-07-25T07:09:18.116Z,30.60
2022-07-25T07:10:22.207Z,30.70
2022-07-25T07:11:24.591Z,30.81
2022-07-25T07:12:26.803Z,30.90
2022-07-25T07:13:29.217Z,31.00
2022-07-25T07:14:31.439Z,31.09
2022-07-25T07:15:34.081Z,31.21
2022-07-25T07:16:36.823Z,31.30
2022-07-25T07:17:39.354Z,31.39
2022-07-25T07:18:48.829Z,31.50
2022-07-25T07:19:51.892Z,31.63
2022-07-25T07:20:54.530Z,31.71
2022-07-25T07:21:56.976Z,31.82
2022-07-25T07:22:59.177Z,31.91
2022-07-25T07:24:01.354Z,32.02
2022-07-25T07:25:05.833Z,32.12
2022-07-25T07:26:08.515Z,32.21
2022-07-25T07:27:10.698Z,32.29
2022-07-25T07:28:13.764Z,32.37
2022-07-25T07:29:15.939Z,32.45
2022-07-25T07:30:23.775Z,32.56
2022-07-25T07:31:27.738Z,32.65
2022-07-25T07:32:30.926Z,32.71
2022-07-25T07:33:33.627Z,32.79
2022-07-25T07:34:36.424Z,32.85
2022-07-25T07:35:38.617Z,32.90
2022-07-25T07:36:41.681Z,32.97
2022-07-25T07:37:44.615Z,33.02
2022-07-25T07:38:48.385Z,33.07
2022-07-25T07:39:50.560Z,33.13
2022-07-25T07:40:54.054Z,33.20
2022-07-25T07:41:56.227Z,33.27
2022-07-25T07:43:01.440Z,33.32
2022-07-25T07:44:03.856Z,33.36
2022-07-25T07:45:26.549Z,33.41
2022-07-25T07:46:28.854Z,33.46
2022-07-25T07:47:31.194Z,33.51
2022-07-25T07:48:33.942Z,33.53
2022-07-25T07:49:37.155Z,33.60
2022-07-25T07:50:39.559Z,33.65
2022-07-25T07:51:45.351Z,33.71
2022-07-25T07:52:48.508Z,33.78
2022-07-25T07:54:09.419Z,33.83
2022-07-25T07:55:30.868Z,33.91
2022-07-25T07:56:33.063Z,33.96
2022-07-25T07:57:35.240Z,34.00
2022-07-25T07:58:37.437Z,34.03
2022-07-25T07:59:39.670Z,34.10
2022-07-25T08:00:46.495Z,34.13
2022-07-25T08:01:48.787Z,34.16
2022-07-25T08:02:52.991Z,34.22
2022-07-25T08:03:55.249Z,34.28
2022-07-25T08:04:57.721Z,34.34
2022-07-25T08:05:59.961Z,34.40
2022-07-25T08:07:02.139Z,34.44
2022-07-25T08:08:05.174Z,34.51
2022-07-25T08:09:07.615Z,34.56
2022-07-25T08:10:10.881Z,34.61
2022-07-25T08:11:13.438Z,34.66
2022-07-25T08:12:15.614Z,34.70
2022-07-25T08:13:23.222Z,34.78
2022-07-25T08:14:25.437Z,34.82
2022-07-25T08:15:27.676Z,34.89
2022-07-25T08:16:29.890Z,34.94
2022-07-25T08:17:32.099Z,34.99
2022-07-25T08:18:34.432Z,35.03
2022-07-25T08:19:37.242Z,35.10
2022-07-25T08:20:39.757Z,35.14
2022-07-25T08:21:41.996Z,35.22
2022-07-25T08:22:47.023Z,35.28
2022-07-25T08:23:49.453Z,35.31
2022-07-25T08:24:51.687Z,35.37
2022-07-25T08:25:54.531Z,35.43
2022-07-25T08:26:56.715Z,35.48
2022-07-25T08:27:59.257Z,35.55
2022-07-25T08:29:18.699Z,35.61
2022-07-25T08:30:21.839Z,35.66
2022-07-25T08:31:24.347Z,35.72
2022-07-25T08:32:27.784Z,35.78
2022-07-25T08:33:30.035Z,35.83
2022-07-25T08:34:32.532Z,35.87
2022-07-25T08:35:35.257Z,35.93
2022-07-25T08:36:37.576Z,35.98
2022-07-25T08:37:39.830Z,36.04
2022-07-25T08:38:42.099Z,36.06
2022-07-25T08:39:45.587Z,36.11
2022-07-25T08:40:48.505Z,36.13
2022-07-25T08:41:54.480Z,36.15
2022-07-25T08:42:58.562Z,36.21
2022-07-25T08:44:03.594Z,36.24
2022-07-25T08:45:08.621Z,36.28
2022-07-25T08:46:14.021Z,36.30
2022-07-25T08:47:16.569Z,36.34
2022-07-25T08:48:21.630Z,36.39
2022-07-25T08:49:23.957Z,36.47
2022-07-25T08:50:28.793Z,36.52
2022-07-25T08:51:32.531Z,36.57
2022-07-25T08:52:37.304Z,36.62
2022-07-25T08:53:40.511Z,36.64
2022-07-25T08:54:45.226Z,36.69
2022-07-25T08:55:48.414Z,36.71
2022-07-25T08:56:51.005Z,36.76
2022-07-25T08:57:54.600Z,36.80
2022-07-25T08:58:59.061Z,36.86
2022-07-25T09:00:02.603Z,36.93
2022-07-25T09:01:04.886Z,36.97
2022-07-25T09:02:08.973Z,37.03
2022-07-25T09:03:11.595Z,37.11
2022-07-25T09:04:14.142Z,37.19
2022-07-25T09:05:18.755Z,37.25
2022-07-25T09:06:22.667Z,37.33
2022-07-25T09:07:41.354Z,37.41
2022-07-25T09:08:57.933Z,37.49
2022-07-25T09:10:13.051Z,37.56
2022-07-25T09:11:26.395Z,37.64
2022-07-25T09:12:29.835Z,37.70
2022-07-25T09:13:38.557Z,37.77
2022-07-25T09:14:43.386Z,37.83
2022-07-25T09:15:56.657Z,37.86
2022-07-25T09:17:07.244Z,37.91
2022-07-25T09:18:27.362Z,37.99
2022-07-25T09:19:31.712Z,38.05
2022-07-25T09:20:48.775Z,38.10
2022-07-25T09:22:10.330Z,38.16
2022-07-25T09:23:15.759Z,38.20
2022-07-25T09:24:18.977Z,38.27
2022-07-25T09:25:23.624Z,38.29
2022-07-25T09:26:25.824Z,38.36
2022-07-25T09:27:34.645Z,38.41
2022-07-25T09:28:56.239Z,38.47
2022-07-25T09:29:58.451Z,38.50
2022-07-25T09:31:02.228Z,38.56
2022-07-25T09:32:22.156Z,38.60
2022-07-25T09:33:26.292Z,38.62
2022-07-25T09:34:37.936Z,38.65
2022-07-25T09:35:41.456Z,38.70
2022-07-25T09:36:54.663Z,38.74
2022-07-25T09:38:10.891Z,38.77
2022-07-25T09:39:13.114Z,38.79
2022-07-25T09:40:16.338Z,38.83
2022-07-25T09:41:18.560Z,38.86
2022-07-25T09:42:32.391Z,38.89
2022-07-25T09:43:43.507Z,38.93
2022-07-25T09:45:12.584Z,38.97
2022-07-25T09:46:16.061Z,39.00
2022-07-25T09:47:18.426Z,39.03
2022-07-25T09:48:21.231Z,39.06
2022-07-25T09:49:23.428Z,39.09
2022-07-25T09:50:27.975Z,39.11
2022-07-25T09:51:30.771Z,39.14
2022-07-25T09:52:33.938Z,39.17
2022-07-25T09:53:36.329Z,39.18
2022-07-25T09:54:39.867Z,39.20
2022-07-25T09:55:42.097Z,39.21
2022-07-25T09:56:44.303Z,39.20
2022-07-25T09:57:49.728Z,39.22
2022-07-25T09:58:52.994Z,39.22
2022-07-25T09:59:56.168Z,39.23
2022-07-25T10:01:05.251Z,39.24
2022-07-25T10:02:15.006Z,39.24
2022-07-25T10:03:35.783Z,39.25
2022-07-25T10:04:59.897Z,39.24
2022-07-25T10:06:41.099Z,39.23
2022-07-25T10:07:47.618Z,39.21
2022-07-25T10:08:51.367Z,39.20
2022-07-25T10:09:55.753Z,39.20
2022-07-25T10:10:58.270Z,39.19
2022-07-25T10:12:05.041Z,39.17
2022-07-25T10:13:11.548Z,39.14
2022-07-25T10:14:14.052Z,39.13
2022-07-25T10:15:16.306Z,39.11
2022-07-25T10:16:21.355Z,39.10
2022-07-25T10:17:23.724Z,39.08
2022-07-25T10:18:31.200Z,39.08
2022-07-25T10:19:58.306Z,39.03
2022-07-25T10:21:28.725Z,39.03
2022-07-25T10:22:58.591Z,39.00
2022-07-25T10:24:06.210Z,39.00
2022-07-25T10:25:27.133Z,38.99
2022-07-25T10:26:30.086Z,38.92
2022-07-25T10:27:44.745Z,38.92
2022-07-25T10:28:48.511Z,38.86
2022-07-25T10:29:54.453Z,38.83
2022-07-25T10:30:59.786Z,38.81
2022-07-25T10:32:13.256Z,38.78
2022-07-25T10:33:18.741Z,38.74
2022-07-25T10:34:33.893Z,38.70
2022-07-25T10:35:36.633Z,38.66
2022-07-25T10:36:56.388Z,38.63
2022-07-25T10:37:59.628Z,38.62
2022-07-25T10:39:02.275Z,38.59
2022-07-25T10:40:04.784Z,38.56
2022-07-25T10:41:09.167Z,38.55
2022-07-25T10:42:16.426Z,38.53
2022-07-25T10:43:32.307Z,38.52
2022-07-25T10:44:44.896Z,38.47
2022-07-25T10:45:57.021Z,38.46
2022-07-25T10:47:06.789Z,38.44
2022-07-25T10:48:27.670Z,38.42
2022-07-25T10:49:36.528Z,38.40
2022-07-25T10:51:13.182Z,38.33
2022-07-25T10:52:17.862Z,38.31
2022-07-25T10:53:51.430Z,38.29
2022-07-25T10:54:58.624Z,38.22
2022-07-25T10:56:06.963Z,38.19
2022-07-25T10:57:15.824Z,38.12
2022-07-25T10:58:18.521Z,38.08
2022-07-25T10:59:40.106Z,38.03
2022-07-25T11:00:45.435Z,37.97
2022-07-25T11:01:51.013Z,37.93
2022-07-25T11:02:57.546Z,37.89
2022-07-25T11:04:06.315Z,37.87
2022-07-25T11:05:09.056Z,37.82
2022-07-25T11:06:15.568Z,37.79
2022-07-25T11:07:18.069Z,37.74
2022-07-25T11:08:30.938Z,37.71
2022-07-25T11:09:34.340Z,37.70
2022-07-25T11:10:36.631Z,37.68
2022-07-25T11:11:41.179Z,37.65
2022-07-25T11:12:46.276Z,37.64
2022-07-25T11:13:50.288Z,37.62
2022-07-25T11:15:02.749Z,37.61
2022-07-25T11:16:06.923Z,37.59
2022-07-25T11:17:22.631Z,37.59
2022-07-25T11:18:41.744Z,37.56
2022-07-25T11:20:00.273Z,37.54
2022-07-25T11:21:06.585Z,37.52
2022-07-25T11:22:09.635Z,37.47
2022-07-25T11:23:11.897Z,37.41
2022-07-25T11:24:14.289Z,37.33
2022-07-25T11:25:16.569Z,37.28
2022-07-25T11:26:19.224Z,37.26
2022-07-25T11:27:28.134Z,37.23
2022-07-25T11:28:53.572Z,37.18
2022-07-25T11:30:09.682Z,37.17
2022-07-25T11:31:14.564Z,37.13
2022-07-25T11:32:17.067Z,37.10
2022-07-25T11:33:19.429Z,37.10
2022-07-25T11:34:24.780Z,37.09
2022-07-25T11:35:33.854Z,37.07
2022-07-25T11:36:36.940Z,37.05
2022-07-25T11:37:43.777Z,37.04
2022-07-25T11:38:49.745Z,37.02
2022-07-25T11:39:56.236Z,37.01
2022-07-25T11:40:58.860Z,36.99
2022-07-25T11:42:03.558Z,36.98
2022-07-25T11:43:05.791Z,36.95
2022-07-25T11:44:08.485Z,36.95
2022-07-25T11:45:31.201Z,36.93
2022-07-25T11:46:44.786Z,36.91
2022-07-25T11:47:49.380Z,36.88
2022-07-25T11:48:51.661Z,36.86
2022-07-25T11:49:56.061Z,36.85
2022-07-25T11:50:58.295Z,36.81
2022-07-25T11:52:00.527Z,36.79
2022-07-25T11:53:05.109Z,36.76
2022-07-25T11:54:11.202Z,36.72
2022-07-25T11:55:17.253Z,36.67
2022-07-25T11:57:47.139Z,36.63
2022-07-25T11:59:00.257Z,36.60
2022-07-25T12:00:07.242Z,36.58
2022-07-25T12:01:15.594Z,36.55
2022-07-25T12:02:25.469Z,36.50
2022-07-25T12:03:38.023Z,36.46
2022-07-25T12:04:40.436Z,36.43
2022-07-25T12:05:43.285Z,36.42
2022-07-25T12:06:47.957Z,36.36
2022-07-25T12:07:53.212Z,36.33
2022-07-25T12:08:55.401Z,36.31
2022-07-25T12:09:58.253Z,36.29
2022-07-25T12:12:17.309Z,36.20
2022-07-25T12:13:26.314Z,36.16
2022-07-25T12:14:32.306Z,36.13
2022-07-25T12:15:40.230Z,36.09
2022-07-25T12:16:42.702Z,36.04
2022-07-25T12:17:46.429Z,36.01
2022-07-25T12:18:48.612Z,35.98
2022-07-25T12:19:50.800Z,35.92
2022-07-25T12:20:53.765Z,35.87
2022-07-25T12:21:55.960Z,35.82
2022-07-25T12:23:01.971Z,35.79
2022-07-25T12:24:06.542Z,35.77
2022-07-25T12:25:09.756Z,35.73
2022-07-25T12:26:13.619Z,35.71
2022-07-25T12:27:15.880Z,35.67
2022-07-25T12:28:18.197Z,35.66
2022-07-25T12:29:20.381Z,35.65
2022-07-25T12:30:22.634Z,35.63
2022-07-25T12:31:28.740Z,35.63
2022-07-25T12:32:31.095Z,35.62
2022-07-25T12:33:33.681Z,35.62
2022-07-25T12:34:35.864Z,35.61
2022-07-25T12:35:38.326Z,35.61
2022-07-25T12:36:44.884Z,35.58
2022-07-25T12:37:47.394Z,35.59
2022-07-25T12:38:49.798Z,35.59
2022-07-25T12:39:52.001Z,35.57
2022-07-25T12:40:54.825Z,35.57
2022-07-25T12:41:57.135Z,35.57
2022-07-25T12:43:00.351Z,35.58
2022-07-25T12:44:04.357Z,35.59
2022-07-25T12:45:08.494Z,35.59
2022-07-25T12:46:10.796Z,35.56
2022-07-25T12:47:13.141Z,35.56
2022-07-25T12:48:15.541Z,35.57
2022-07-25T12:49:17.867Z,35.56
2022-07-25T12:50:22.706Z,35.58
2022-07-25T12:51:24.906Z,35.59
2022-07-25T12:52:27.311Z,35.60
2022-07-25T12:53:29.583Z,35.60
2022-07-25T12:54:31.989Z,35.61
2022-07-25T12:55:34.555Z,35.63
2022-07-25T12:56:36.752Z,35.64
2022-07-25T12:57:39.435Z,35.65
2022-07-25T12:58:41.645Z,35.65
2022-07-25T12:59:44.136Z,35.65
2022-07-25T13:00:46.816Z,35.67
2022-07-25T13:01:49.184Z,35.68
2022-07-25T13:02:53.343Z,35.70
2022-07-25T13:03:55.909Z,35.71
2022-07-25T13:04:58.091Z,35.72
2022-07-25T13:06:00.471Z,35.73
2022-07-25T13:07:02.859Z,35.76
2022-07-25T13:08:06.294Z,35.78
2022-07-25T13:09:08.966Z,35.78
2022-07-25T13:10:12.783Z,35.79
2022-07-25T13:11:15.032Z,35.81
2022-07-25T13:12:17.232Z,35.81
2022-07-25T13:13:19.437Z,35.83
2022-07-25T13:14:21.721Z,35.82
2022-07-25T13:15:28.254Z,35.84
2022-07-25T13:16:30.640Z,35.86
2022-07-25T13:17:33.282Z,35.85
2022-07-25T13:18:35.541Z,35.86
2022-07-25T13:19:37.839Z,35.87
2022-07-25T13:20:40.058Z,35.87
2022-07-25T13:21:43.505Z,35.87
2022-07-25T13:22:45.775Z,35.89
2022-07-25T13:23:47.985Z,35.89
2022-07-25T13:24:50.375Z,35.89
2022-07-25T13:25:52.862Z,35.91
2022-07-25T13:26:55.204Z,35.90
2022-07-25T13:27:57.418Z,35.84
2022-07-25T13:29:00.234Z,35.85
2022-07-25T13:30:02.516Z,35.81
2022-07-25T13:31:07.094Z,35.81
2022-07-25T13:32:09.337Z,35.82
2022-07-25T13:33:11.557Z,35.81
2022-07-25T13:34:13.918Z,35.80
2022-07-25T13:35:20.258Z,35.79
2022-07-25T13:36:22.995Z,35.78
2022-07-25T13:37:25.190Z,35.76
2022-07-25T13:38:27.406Z,35.74
2022-07-25T13:39:29.818Z,35.73
2022-07-25T13:40:32.462Z,35.70
2022-07-25T13:41:34.765Z,35.70
2022-07-25T13:42:36.969Z,35.67
2022-07-25T13:43:39.874Z,35.66
2022-07-25T13:44:42.094Z,35.65
2022-07-25T13:45:44.536Z,35.64
2022-07-25T13:46:50.357Z,35.58
2022-07-25T13:48:12.109Z,35.56
2022-07-25T13:49:14.968Z,35.51
2022-07-25T13:50:17.228Z,35.49
2022-07-25T13:51:19.580Z,35.47